createdAt,value
2023-03-28T00:00:35.259Z,25.02
2023-03-28T00:03:04.946Z,25.01
2023-03-28T00:05:34.662Z,25.03
2023-03-28T00:08:04.786Z,25.05
2023-03-28T00:10:34.561Z,24.98
2023-03-28T00:13:04.254Z,24.95
2023-03-28T00:15:34.039Z,24.95
2023-03-28T00:18:03.758Z,24.93
2023-03-28T00:20:33.823Z,24.88
2023-03-28T00:23:05.561Z,24.98
2023-03-28T00:25:42.077Z,24.77
2023-03-28T00:28:24.143Z,24.83
2023-03-28T00:30:57.048Z,24.89
2023-03-28T00:33:26.766Z,24.83
2023-03-28T00:35:58.444Z,24.86
2023-03-28T00:38:29.212Z,24.86
2023-03-28T00:41:22.897Z,24.89
2023-03-28T00:44:16.719Z,24.73
2023-03-28T00:47:07.439Z,24.79
2023-03-28T00:49:55.117Z,24.72
2023-03-28T00:52:34.148Z,24.83
2023-03-28T00:55:11.689Z,24.90
2023-03-28T00:58:33.721Z,24.74
2023-03-28T01:01:21.375Z,24.46
2023-03-28T01:04:18.836Z,24.27
2023-03-28T01:07:39.112Z,24.15
2023-03-28T01:10:40.620Z,24.21
2023-03-28T01:13:26.265Z,24.70
2023-03-28T01:16:06.715Z,24.85
2023-03-28T01:18:45.854Z,24.74
2023-03-28T01:22:01.431Z,24.49
2023-03-28T01:25:21.233Z,24.75
2023-03-28T01:28:19.727Z,24.95
2023-03-28T01:31:39.794Z,24.95
2023-03-28T01:34:20.287Z,24.97
2023-03-28T01:37:26.209Z,25.11
2023-03-28T01:40:02.697Z,25.06
2023-03-28T01:42:50.390Z,25.20
2023-03-28T01:45:36.406Z,25.14
2023-03-28T01:48:12.856Z,25.06
2023-03-28T01:50:59.388Z,24.98
2023-03-28T01:53:44.659Z,24.89
2023-03-28T01:56:28.202Z,24.81
2023-03-28T01:59:01.244Z,24.83
2023-03-28T02:01:50.987Z,24.89
2023-03-28T02:04:22.144Z,24.96
2023-03-28T02:06:52.175Z,25.04
2023-03-28T02:09:24.754Z,25.05
2023-03-28T02:11:58.351Z,25.10
2023-03-28T02:14:29.854Z,25.11
2023-03-28T02:17:02.151Z,25.07
2023-03-28T02:19:32.759Z,25.04
2023-03-28T02:22:17.890Z,24.97
2023-03-28T02:24:52.086Z,24.86
2023-03-28T02:27:24.080Z,24.89
2023-03-28T02:29:55.927Z,24.98
2023-03-28T02:32:25.778Z,25.00
2023-03-28T02:34:56.160Z,25.03
2023-03-28T02:37:50.569Z,25.03
2023-03-28T02:40:26.071Z,25.03
2023-03-28T02:43:25.859Z,24.97
2023-03-28T02:45:59.419Z,25.06
2023-03-28T02:49:16.540Z,25.08
2023-03-28T02:51:47.962Z,24.66
2023-03-28T02:54:27.960Z,24.35
2023-03-28T02:57:10.010Z,24.32
2023-03-28T02:59:50.211Z,24.17
2023-03-28T03:02:20.709Z,24.24
2023-03-28T03:05:02.142Z,24.85
2023-03-28T03:07:32.524Z,24.65
2023-03-28T03:10:02.349Z,24.44
2023-03-28T03:12:32.237Z,24.52
2023-03-28T03:15:02.676Z,24.64
2023-03-28T03:17:32.611Z,24.67
2023-03-28T03:20:08.646Z,24.59
2023-03-28T03:22:38.636Z,24.53
2023-03-28T03:25:13.796Z,24.49
2023-03-28T03:27:44.110Z,24.53
2023-03-28T03:30:16.598Z,24.40
2023-03-28T03:32:46.713Z,24.42
2023-03-28T03:35:16.516Z,24.50
2023-03-28T03:37:49.216Z,24.53
2023-03-28T03:40:19.841Z,24.47
2023-03-28T03:42:49.665Z,24.42
2023-03-28T03:45:19.486Z,24.35
2023-03-28T03:47:49.200Z,24.08
2023-03-28T03:50:22.252Z,24.05
2023-03-28T03:52:52.041Z,24.15
2023-03-28T03:55:22.363Z,24.33
2023-03-28T03:57:52.100Z,24.57
2023-03-28T04:00:22.015Z,24.70
2023-03-28T04:02:51.810Z,24.73
2023-03-28T04:05:21.565Z,24.73
2023-03-28T04:07:51.261Z,24.72
2023-03-28T04:10:20.967Z,24.78
2023-03-28T04:12:51.069Z,24.87
2023-03-28T04:15:20.864Z,24.87
2023-03-28T04:17:51.680Z,24.90
2023-03-28T04:20:22.524Z,24.92
2023-03-28T04:22:52.250Z,24.88
2023-03-28T04:25:22.192Z,24.87
2023-03-28T04:27:51.906Z,24.95
2023-03-28T04:30:21.679Z,24.95
2023-03-28T04:32:52.069Z,25.00
2023-03-28T04:35:25.832Z,24.95
2023-03-28T04:37:59.879Z,24.94
2023-03-28T04:40:29.681Z,24.93
2023-03-28T04:42:59.355Z,25.01
2023-03-28T04:45:29.118Z,25.04
2023-03-28T04:47:58.831Z,25.05
2023-03-28T04:50:28.510Z,25.07
2023-03-28T04:52:58.157Z,25.07
2023-03-28T04:55:27.806Z,25.06
2023-03-28T04:57:57.701Z,25.10
2023-03-28T05:00:27.673Z,25.06
2023-03-28T05:03:03.398Z,25.08
2023-03-28T05:05:33.832Z,25.04
2023-03-28T05:08:04.766Z,25.01
2023-03-28T05:10:34.468Z,25.04
2023-03-28T05:13:04.267Z,25.06
2023-03-28T05:15:34.051Z,25.08
2023-03-28T05:18:03.798Z,25.03
2023-03-28T05:20:34.081Z,25.03
2023-03-28T05:23:04.231Z,25.06
2023-03-28T05:25:34.035Z,25.06
2023-03-28T05:28:06.519Z,25.00
2023-03-28T05:30:36.462Z,24.98
2023-03-28T05:33:06.203Z,25.04
2023-03-28T05:35:35.880Z,25.01
2023-03-28T05:38:06.445Z,25.08
2023-03-28T05:40:36.095Z,25.11
2023-03-28T05:43:06.216Z,25.12
2023-03-28T05:45:35.958Z,25.02
2023-03-28T05:48:05.801Z,25.02
2023-03-28T05:50:35.612Z,25.08
2023-03-28T05:53:05.261Z,24.97
2023-03-28T05:55:35.878Z,25.18
2023-03-28T05:58:07.905Z,25.30
2023-03-28T06:00:37.565Z,25.39
2023-03-28T06:03:09.056Z,25.42
2023-03-28T06:05:46.481Z,25.06
2023-03-28T06:08:16.196Z,24.88
2023-03-28T06:10:46.001Z,24.50
2023-03-28T06:13:15.629Z,24.81
2023-03-28T06:15:45.548Z,25.62
2023-03-28T06:18:15.284Z,26.20
2023-03-28T06:20:45.117Z,26.58
2023-03-28T06:23:14.744Z,26.87
2023-03-28T06:25:44.508Z,26.44
2023-03-28T06:28:14.180Z,25.90
2023-03-28T06:30:43.898Z,25.53
2023-03-28T06:33:13.582Z,25.23
2023-03-28T06:35:43.388Z,25.02
2023-03-28T06:38:13.292Z,24.88
2023-03-28T06:40:43.106Z,24.76
2023-03-28T06:43:12.835Z,24.62
2023-03-28T06:45:43.251Z,24.53
2023-03-28T06:48:12.975Z,24.44
2023-03-28T06:50:42.684Z,24.40
2023-03-28T06:53:12.353Z,24.30
2023-03-28T06:55:42.813Z,24.28
2023-03-28T06:58:12.672Z,24.22
2023-03-28T07:00:42.832Z,24.15
2023-03-28T07:03:12.654Z,24.11
2023-03-28T07:05:43.216Z,24.04
2023-03-28T07:08:14.262Z,24.02
2023-03-28T07:10:44.242Z,23.98
2023-03-28T07:13:13.927Z,23.94
2023-03-28T07:15:43.639Z,23.90
2023-03-28T07:18:13.344Z,23.90
2023-03-28T07:21:01.579Z,23.83
2023-03-28T07:23:33.453Z,23.80
2023-03-28T07:26:03.126Z,23.76
2023-03-28T07:28:32.809Z,23.73
2023-03-28T07:31:06.713Z,23.76
2023-03-28T07:33:38.014Z,23.73
2023-03-28T07:36:18.078Z,23.69
2023-03-28T07:38:49.285Z,23.68
2023-03-28T07:41:19.505Z,23.66
2023-03-28T07:43:49.145Z,23.65
2023-03-28T07:46:18.868Z,23.65
2023-03-28T07:48:48.495Z,23.64
2023-03-28T07:51:18.172Z,23.60
2023-03-28T07:53:47.841Z,23.56
2023-03-28T07:56:17.476Z,23.58
2023-03-28T07:58:47.650Z,23.51
2023-03-28T08:01:20.259Z,23.48
2023-03-28T08:03:50.053Z,23.47
2023-03-28T08:06:31.626Z,23.46
2023-03-28T08:09:02.308Z,23.42
2023-03-28T08:11:32.105Z,23.40
2023-03-28T08:14:01.755Z,23.39
2023-03-28T08:16:31.906Z,23.37
2023-03-28T08:19:10.554Z,23.35
2023-03-28T08:21:40.722Z,23.34
2023-03-28T08:24:19.639Z,23.34
2023-03-28T08:26:52.226Z,23.30
2023-03-28T08:29:24.790Z,23.31
2023-03-28T08:31:54.479Z,23.32
2023-03-28T08:34:24.150Z,23.27
2023-03-28T08:36:54.529Z,23.25
2023-03-28T08:39:24.863Z,23.28
2023-03-28T08:42:00.206Z,23.28
2023-03-28T08:44:51.062Z,23.24
2023-03-28T08:47:38.869Z,23.22
2023-03-28T08:50:19.818Z,23.22
2023-03-28T08:52:49.601Z,23.18
2023-03-28T08:55:19.280Z,23.18
2023-03-28T08:57:48.944Z,23.15
2023-03-28T09:00:24.049Z,23.13
2023-03-28T09:02:53.872Z,23.14
2023-03-28T09:05:37.253Z,23.18
2023-03-28T09:08:20.575Z,23.14
2023-03-28T09:11:31.206Z,23.12
2023-03-28T09:14:23.830Z,23.09
2023-03-28T09:17:15.053Z,23.08
2023-03-28T09:20:14.910Z,23.09
2023-03-28T09:23:09.856Z,23.01
2023-03-28T09:25:44.094Z,23.01
2023-03-28T09:28:35.083Z,23.01
2023-03-28T09:31:04.800Z,23.01
2023-03-28T09:33:42.209Z,22.96
2023-03-28T09:36:48.234Z,22.95
2023-03-28T09:39:35.507Z,22.87
2023-03-28T09:42:11.674Z,22.89
2023-03-28T09:44:55.187Z,22.85
2023-03-28T09:47:24.955Z,22.74
2023-03-28T09:50:05.567Z,22.69
2023-03-28T09:52:39.743Z,22.65
2023-03-28T09:55:18.903Z,22.66
2023-03-28T09:58:10.595Z,22.56
2023-03-28T10:00:52.794Z,22.59
2023-03-28T10:03:36.562Z,22.61
2023-03-28T10:06:33.249Z,22.59
2023-03-28T10:09:23.475Z,22.58
2023-03-28T10:12:01.297Z,22.49
2023-03-28T10:14:36.296Z,22.50
2023-03-28T10:17:18.311Z,22.47
2023-03-28T10:19:48.744Z,22.48
2023-03-28T10:22:25.302Z,22.45
2023-03-28T10:24:54.954Z,22.46
2023-03-28T10:27:26.712Z,22.48
2023-03-28T10:29:58.357Z,22.40
2023-03-28T10:32:31.800Z,22.41
2023-03-28T10:35:26.640Z,22.43
2023-03-28T10:38:00.404Z,22.43
2023-03-28T10:40:33.899Z,22.34
2023-03-28T10:43:12.989Z,22.37
2023-03-28T10:45:52.575Z,22.41
2023-03-28T10:48:31.517Z,22.39
2023-03-28T10:51:09.842Z,22.37
2023-03-28T10:54:17.405Z,22.28
2023-03-28T10:57:01.311Z,22.25
2023-03-28T10:59:52.103Z,22.22
2023-03-28T11:02:44.619Z,22.21
2023-03-28T11:05:41.736Z,22.23
2023-03-28T11:08:38.031Z,22.25
2023-03-28T11:11:25.525Z,22.21
2023-03-28T11:14:02.848Z,22.16
2023-03-28T11:16:42.499Z,22.19
2023-03-28T11:19:56.065Z,22.13
2023-03-28T11:23:04.600Z,22.12
2023-03-28T11:25:45.515Z,22.11
2023-03-28T11:28:32.878Z,22.09
2023-03-28T11:31:17.069Z,22.08
2023-03-28T11:34:06.657Z,22.05
2023-03-28T11:36:58.549Z,21.97
2023-03-28T11:39:40.012Z,22.02
2023-03-28T11:42:26.032Z,21.98
2023-03-28T11:45:09.593Z,21.93
2023-03-28T11:48:40.030Z,21.87
2023-03-28T11:51:30.797Z,21.91
2023-03-28T11:54:50.227Z,21.89
2023-03-28T11:57:41.315Z,21.89
2023-03-28T12:00:34.222Z,21.86
2023-03-28T12:03:20.344Z,21.84
2023-03-28T12:06:13.612Z,21.91
2023-03-28T12:08:50.683Z,21.83
2023-03-28T12:11:43.543Z,21.82
2023-03-28T12:14:23.217Z,21.82
2023-03-28T12:17:03.857Z,21.83
2023-03-28T12:19:48.677Z,21.80
2023-03-28T12:22:37.000Z,21.79
2023-03-28T12:25:39.566Z,21.78
2023-03-28T12:28:37.331Z,21.72
2023-03-28T12:31:23.629Z,21.74
2023-03-28T12:34:00.160Z,21.74
2023-03-28T12:37:06.484Z,21.67
2023-03-28T12:40:14.510Z,21.70
2023-03-28T12:42:52.395Z,21.65
2023-03-28T12:45:44.514Z,21.68
2023-03-28T12:48:46.751Z,21.70
2023-03-28T12:51:35.856Z,21.67
2023-03-28T12:54:41.863Z,21.66
2023-03-28T12:57:34.291Z,21.67
2023-03-28T13:00:30.719Z,21.62
2023-03-28T13:03:36.360Z,21.63
2023-03-28T13:06:26.476Z,21.58
2023-03-28T13:09:25.443Z,21.58
2023-03-28T13:12:31.819Z,21.60
2023-03-28T13:15:19.713Z,21.57
2023-03-28T13:18:34.383Z,21.56
2023-03-28T13:21:10.682Z,21.56
2023-03-28T13:23:57.502Z,21.58
2023-03-28T13:27:06.099Z,21.58
2023-03-28T13:30:12.298Z,21.56
2023-03-28T13:32:54.744Z,21.54
2023-03-28T13:36:22.292Z,21.54
2023-03-28T13:39:12.021Z,21.59
2023-03-28T13:41:53.279Z,21.53
2023-03-28T13:44:49.194Z,21.54
2023-03-28T13:47:38.837Z,21.54
2023-03-28T13:50:36.278Z,21.51
2023-03-28T13:53:16.445Z,21.51
2023-03-28T13:55:56.353Z,21.52
2023-03-28T13:58:30.836Z,21.49
2023-03-28T14:01:26.060Z,21.46
2023-03-28T14:04:05.644Z,21.40
2023-03-28T14:06:45.443Z,21.40
2023-03-28T14:09:34.884Z,21.40
2023-03-28T14:12:16.974Z,21.42
2023-03-28T14:14:56.685Z,21.45
2023-03-28T14:17:40.487Z,21.42
2023-03-28T14:20:25.295Z,21.45
2023-03-28T14:23:07.890Z,21.42
2023-03-28T14:25:42.809Z,21.39
2023-03-28T14:28:20.098Z,21.35
2023-03-28T14:31:11.883Z,21.41
2023-03-28T14:33:53.735Z,21.37
2023-03-28T14:36:32.617Z,21.40
2023-03-28T14:39:24.649Z,21.40
2023-03-28T14:42:03.246Z,21.38
2023-03-28T14:44:47.845Z,21.37
2023-03-28T14:47:36.840Z,21.36
2023-03-28T14:50:19.876Z,21.35
2023-03-28T14:52:54.940Z,21.32
2023-03-28T14:55:30.470Z,21.34
2023-03-28T14:58:08.174Z,21.32
2023-03-28T15:01:06.247Z,21.31
2023-03-28T15:03:56.003Z,21.31
2023-03-28T15:06:33.980Z,21.29
2023-03-28T15:09:23.058Z,21.30
2023-03-28T15:11:57.739Z,21.27
2023-03-28T15:14:39.781Z,21.30
2023-03-28T15:17:25.566Z,21.23
2023-03-28T15:20:01.447Z,21.28
2023-03-28T15:22:38.493Z,21.28
2023-03-28T15:25:21.860Z,21.32
2023-03-28T15:28:08.325Z,21.32
2023-03-28T15:30:52.398Z,21.27
2023-03-28T15:33:37.700Z,21.25
2023-03-28T15:36:35.045Z,21.24
2023-03-28T15:39:34.716Z,21.27
2023-03-28T15:42:11.826Z,21.25
2023-03-28T15:44:56.338Z,21.26
2023-03-28T15:47:46.804Z,21.23
2023-03-28T15:50:50.512Z,21.22
2023-03-28T15:53:33.027Z,21.21
2023-03-28T15:56:40.290Z,21.24
2023-03-28T15:59:23.399Z,21.18
2023-03-28T16:02:36.025Z,21.23
2023-03-28T16:05:16.095Z,21.20
2023-03-28T16:07:52.220Z,21.17
2023-03-28T16:10:32.430Z,21.18
2023-03-28T16:13:15.557Z,21.17
2023-03-28T16:16:00.792Z,21.18
2023-03-28T16:18:35.927Z,21.16
2023-03-28T16:21:19.680Z,21.15
2023-03-28T16:23:54.284Z,21.11
2023-03-28T16:26:33.043Z,21.16
2023-03-28T16:29:17.116Z,21.11
2023-03-28T16:31:51.992Z,21.12
2023-03-28T16:34:27.129Z,21.08
2023-03-28T16:37:10.955Z,21.08
2023-03-28T16:39:49.053Z,21.06
2023-03-28T16:42:31.840Z,21.07
2023-03-28T16:45:09.003Z,21.04
2023-03-28T16:47:47.591Z,21.02
2023-03-28T16:50:26.408Z,21.05
2023-03-28T16:53:05.128Z,21.09
2023-03-28T16:55:39.983Z,21.09
2023-03-28T16:58:18.699Z,21.06
2023-03-28T17:00:57.750Z,21.02
2023-03-28T17:03:46.157Z,21.03
2023-03-28T17:06:26.249Z,21.01
2023-03-28T17:09:03.828Z,21.06
2023-03-28T17:11:41.571Z,21.03
2023-03-28T17:14:15.377Z,21.04
2023-03-28T17:16:51.205Z,21.01
2023-03-28T17:19:25.722Z,21.01
2023-03-28T17:22:01.377Z,21.00
2023-03-28T17:24:35.557Z,20.98
2023-03-28T17:27:13.539Z,21.00
2023-03-28T17:29:51.290Z,21.00
2023-03-28T17:32:28.592Z,21.00
2023-03-28T17:35:10.750Z,21.01
2023-03-28T17:38:28.901Z,20.99
2023-03-28T17:41:27.161Z,20.97
2023-03-28T17:44:01.430Z,20.96
2023-03-28T17:46:37.355Z,20.98
2023-03-28T17:49:13.262Z,20.97
2023-03-28T17:51:50.115Z,20.92
2023-03-28T17:54:21.985Z,20.95
2023-03-28T17:56:54.851Z,20.92
2023-03-28T17:59:25.815Z,20.90
2023-03-28T18:01:56.285Z,20.94
2023-03-28T18:04:25.987Z,20.96
2023-03-28T18:06:55.979Z,20.94
2023-03-28T18:09:25.924Z,20.89
2023-03-28T18:11:55.555Z,20.91
2023-03-28T18:14:25.176Z,20.92
2023-03-28T18:16:56.793Z,20.90
2023-03-28T18:19:26.463Z,20.90
2023-03-28T18:21:56.299Z,20.87
2023-03-28T18:24:25.896Z,20.83
2023-03-28T18:26:55.735Z,20.86
2023-03-28T18:29:25.394Z,20.82
2023-03-28T18:31:55.147Z,20.84
2023-03-28T18:34:24.860Z,20.83
2023-03-28T18:36:57.060Z,20.84
2023-03-28T18:39:27.413Z,20.84
2023-03-28T18:41:57.160Z,20.82
2023-03-28T18:44:26.818Z,20.79
2023-03-28T18:46:56.933Z,20.79
2023-03-28T18:49:26.754Z,20.80
2023-03-28T18:51:56.798Z,20.81
2023-03-28T18:54:26.506Z,20.78
2023-03-28T18:56:56.137Z,20.80
2023-03-28T18:59:25.911Z,20.77
2023-03-28T19:01:59.923Z,20.79
2023-03-28T19:04:30.920Z,20.76
2023-03-28T19:07:00.584Z,20.78
2023-03-28T19:09:30.303Z,20.75
2023-03-28T19:12:00.130Z,20.77
2023-03-28T19:14:29.934Z,20.75
2023-03-28T19:16:59.674Z,20.73
2023-03-28T19:19:29.571Z,20.75
2023-03-28T19:21:59.194Z,20.73
2023-03-28T19:24:28.963Z,20.70
2023-03-28T19:26:59.474Z,20.73
2023-03-28T19:29:30.095Z,20.73
2023-03-28T19:31:59.779Z,20.72
2023-03-28T19:34:30.427Z,20.71
2023-03-28T19:37:00.217Z,20.71
2023-03-28T19:39:29.916Z,20.70
2023-03-28T19:41:59.656Z,20.72
2023-03-28T19:45:12.059Z,20.71
2023-03-28T19:48:01.613Z,20.67
2023-03-28T19:50:35.081Z,20.69
2023-03-28T19:53:05.077Z,20.65
2023-03-28T19:55:34.976Z,20.67
2023-03-28T19:58:06.536Z,20.63
2023-03-28T20:00:36.299Z,20.62
2023-03-28T20:03:06.065Z,20.61
2023-03-28T20:05:35.860Z,20.56
2023-03-28T20:08:05.464Z,20.56
2023-03-28T20:10:35.072Z,20.52
2023-03-28T20:13:04.679Z,20.53
2023-03-28T20:15:35.190Z,20.54
2023-03-28T20:18:05.293Z,20.53
2023-03-28T20:20:34.933Z,20.51
2023-03-28T20:23:05.599Z,20.48
2023-03-28T20:25:35.772Z,20.49
2023-03-28T20:28:05.878Z,20.49
2023-03-28T20:30:35.507Z,20.45
2023-03-28T20:33:05.714Z,20.49
2023-03-28T20:35:35.631Z,20.49
2023-03-28T20:38:05.390Z,20.46
2023-03-28T20:40:35.031Z,20.46
2023-03-28T20:43:04.713Z,20.47
2023-03-28T20:45:35.472Z,20.45
2023-03-28T20:48:07.784Z,20.41
2023-03-28T20:50:39.075Z,20.43
2023-03-28T20:53:09.484Z,20.39
2023-03-28T20:55:39.356Z,20.39
2023-03-28T20:58:10.352Z,20.40
2023-03-28T21:00:41.376Z,20.37
2023-03-28T21:03:12.832Z,20.38
2023-03-28T21:05:46.232Z,20.69
2023-03-28T21:08:16.165Z,21.60
2023-03-28T21:10:45.808Z,22.26
2023-03-28T21:13:15.486Z,22.99
2023-03-28T21:15:45.357Z,23.66
2023-03-28T21:18:15.581Z,24.31
2023-03-28T21:20:46.255Z,25.03
2023-03-28T21:23:16.059Z,25.44
2023-03-28T21:25:46.906Z,25.62
2023-03-28T21:28:17.748Z,25.55
2023-03-28T21:31:01.298Z,24.70
2023-03-28T21:33:31.625Z,24.07
2023-03-28T21:36:01.482Z,23.61
2023-03-28T21:38:31.113Z,23.14
2023-03-28T21:41:01.078Z,22.92
2023-03-28T21:43:31.031Z,22.60
2023-03-28T21:46:00.667Z,22.11
2023-03-28T21:48:30.958Z,21.84
2023-03-28T21:51:01.369Z,21.67
2023-03-28T21:53:33.150Z,21.55
2023-03-28T21:56:02.760Z,21.42
2023-03-28T21:58:34.218Z,21.36
2023-03-28T22:01:04.607Z,21.29
2023-03-28T22:03:37.332Z,21.14
2023-03-28T22:06:07.337Z,21.12
2023-03-28T22:08:37.095Z,21.06
2023-03-28T22:11:16.057Z,21.07
2023-03-28T22:13:46.398Z,21.00
2023-03-28T22:16:16.939Z,20.96
2023-03-28T22:18:51.162Z,20.92
2023-03-28T22:21:20.785Z,20.92
2023-03-28T22:23:50.414Z,20.86
2023-03-28T22:26:20.130Z,20.82
2023-03-28T22:28:50.759Z,20.87
2023-03-28T22:31:20.494Z,20.84
2023-03-28T22:33:50.245Z,20.78
2023-03-28T22:36:20.054Z,20.82
2023-03-28T22:38:49.792Z,20.80
2023-03-28T22:41:21.896Z,20.83
2023-03-28T22:43:51.768Z,20.88
2023-03-28T22:46:22.785Z,20.98
2023-03-28T22:48:55.744Z,21.03
2023-03-28T22:51:26.700Z,21.10
2023-03-28T22:54:00.592Z,21.15
2023-03-28T22:56:30.463Z,21.12
2023-03-28T22:59:02.612Z,21.17
2023-03-28T23:01:32.425Z,21.27
2023-03-28T23:04:02.161Z,21.25
2023-03-28T23:06:33.113Z,21.24
2023-03-28T23:09:02.855Z,21.27
2023-03-28T23:11:32.590Z,21.36
2023-03-28T23:14:05.351Z,21.39
2023-03-28T23:16:35.212Z,21.34
2023-03-28T23:19:05.390Z,21.36
2023-03-28T23:21:37.113Z,21.41
2023-03-28T23:24:07.276Z,21.48
2023-03-28T23:26:37.264Z,21.55
2023-03-28T23:29:07.166Z,21.56
2023-03-28T23:31:39.585Z,21.58
2023-03-28T23:34:09.351Z,21.60
2023-03-28T23:36:42.747Z,21.68
2023-03-28T23:39:12.636Z,21.67
2023-03-28T23:41:43.025Z,21.77
2023-03-28T23:44:13.183Z,21.82
2023-03-28T23:46:42.906Z,21.93
2023-03-28T23:49:15.681Z,21.97
2023-03-28T23:51:45.703Z,21.97
2023-03-28T23:54:17.202Z,21.98
2023-03-28T23:56:48.319Z,22.02
2023-03-28T23:59:20.727Z,22.04
